Meadville, PA (16335)

1:42 AM EST on February 14, 2016 (GMT -0500)
Gilmore St | | Change Station
CLOSE
Current Station
Personal Weather Station
Location: Meadville, PA
Elevation: 1365 ft
Nearby Weather Stations

Elev 1365 ft 41.65 °N, 80.14 °W | Updated 26 seconds ago

Light Snow
Light Snow
4.8 °F
Feels Like 5 °F
N
0.0
Wind Variable Wind from NW
Gusts 1.6 mph

Today
High -- | Low -- °F
--% Chance of Precip.
Yesterday
High -- | Low -- °F
Precip. -- in
Pressure 30.34 in
Visibility 3.0 miles
Clouds Mostly Cloudy 4300 ft
Overcast 5000 ft
Windchill 5 °F
Dew Point -6 °F
Humidity 60%
Rainfall 0.00 in
Snow Depth Not available.
7:18 AM 5:52 PM
Waxing Crescent, 38% visible
SPECI KGKJ 140630Z AUTO 27004KT 3SM -SN BKN043 OVC050 M14/M19 A3034 RMK AO2 P0000 T11441189 TSNO
Pressure 30.34 in
Visibility 3.0 miles
Clouds Mostly Cloudy 4300 ft
Overcast 5000 ft
Windchill 5 °F
Dew Point -6 °F
Humidity 60%
Rainfall 0.00 in
Snow Depth Not available.
7:18 AM 5:52 PM
Waxing Crescent, 38% visible
SPECI KGKJ 140630Z AUTO 27004KT 3SM -SN BKN043 OVC050 M14/M19 A3034 RMK AO2 P0000 T11441189 TSNO

10-Day Weather Forecast

Almanac

Astronomy

Feb. 14, 2016 Rise Set
Actual Time
Civil Twilight
Nautical Twilight
Astronomical Twilight
Moon
Length of Visible Light
Length of Day
Tomorrow will be .
, % of the Moon is Illuminated

Today's Extremes

State Highs State Lows

Community

WunderPhotos

Upload Photos

1,892,757 photos uploaded!

WunderBlog® & News

Nearby

Air Quality

  Air Quality AQ Index Pollutant
Not available.

Snow Depth

Station Depth Elevation

Earthquake Activity

City Distance Mag. Time & Date
Minimum magnitude displayed is 2.5.

Coastal Water Temperatures

Place Temperature

Stations

Nearby Weather Stations

Station Location Temp. Windchill Dew Point Humidity Wind Precip. Elev Updated Type
                   

Watches & Warnings

There are currently no watches in effect.